createdAt,value
2018-12-01T00:01:29.819Z,4.13
2018-12-01T00:03:57.937Z,4.07
2018-12-01T00:06:26.789Z,4.50
2018-12-01T00:08:54.997Z,4.47
2018-12-01T00:11:23.279Z,3.97
2018-12-01T00:13:52.479Z,4.57
2018-12-01T00:16:20.614Z,4.50
2018-12-01T00:18:48.823Z,4.23
2018-12-01T00:21:16.954Z,5.00
2018-12-01T00:23:45.343Z,4.93
2018-12-01T00:26:13.605Z,5.00
2018-12-01T00:28:41.817Z,4.93
2018-12-01T00:31:10.083Z,4.40
2018-12-01T00:33:38.241Z,4.60
2018-12-01T00:36:06.393Z,3.80
2018-12-01T00:38:34.615Z,4.37
2018-12-01T00:41:02.754Z,4.70
2018-12-01T00:43:30.880Z,4.27
2018-12-01T00:45:59.035Z,4.67
2018-12-01T00:48:27.230Z,4.27
2018-12-01T00:50:55.386Z,4.53
2018-12-01T00:53:23.660Z,5.07
2018-12-01T00:55:51.807Z,5.27
2018-12-01T00:58:19.946Z,5.50
2018-12-01T01:00:48.074Z,5.37
2018-12-01T01:03:16.267Z,5.83
2018-12-01T01:05:44.436Z,4.37
2018-12-01T01:08:12.564Z,4.33
2018-12-01T01:10:41.045Z,5.57
2018-12-01T01:13:09.216Z,5.93
2018-12-01T01:15:37.414Z,6.40
2018-12-01T01:18:05.783Z,5.97
2018-12-01T01:20:33.978Z,6.40
2018-12-01T01:23:02.220Z,6.63
2018-12-01T01:25:30.346Z,6.83
2018-12-01T01:27:58.495Z,5.97
2018-12-01T01:30:26.640Z,6.40
2018-12-01T01:33:06.038Z,6.40
2018-12-01T01:35:34.181Z,6.77
2018-12-01T01:38:02.337Z,6.20
2018-12-01T01:40:30.517Z,6.00
2018-12-01T01:42:58.802Z,5.57
2018-12-01T01:45:26.944Z,6.00
2018-12-01T01:47:55.154Z,5.73
2018-12-01T01:50:23.325Z,6.23
2018-12-01T01:52:51.468Z,6.33
2018-12-01T01:55:19.694Z,6.43
2018-12-01T01:57:48.298Z,6.27
2018-12-01T02:00:17.611Z,6.53
2018-12-01T02:02:52.652Z,6.03
2018-12-01T02:05:21.778Z,6.00
2018-12-01T02:07:50.087Z,6.40
2018-12-01T02:10:18.922Z,6.13
2018-12-01T02:12:47.063Z,6.10
2018-12-01T02:15:15.349Z,6.00
2018-12-01T02:17:43.578Z,6.17
2018-12-01T02:20:17.456Z,5.53
2018-12-01T02:22:45.866Z,5.60
2018-12-01T02:25:15.995Z,5.50
2018-12-01T02:27:44.237Z,6.20
2018-12-01T02:30:17.345Z,6.33
2018-12-01T02:32:45.615Z,5.30
2018-12-01T02:35:22.578Z,6.07
2018-12-01T02:37:50.813Z,5.53
2018-12-01T02:40:18.952Z,5.90
2018-12-01T02:42:47.092Z,5.60
2018-12-01T02:45:26.548Z,5.43
2018-12-01T02:47:54.783Z,5.70
2018-12-01T02:50:24.493Z,5.27
2018-12-01T02:52:53.636Z,5.60
2018-12-01T02:55:21.795Z,5.43
2018-12-01T02:57:51.362Z,5.63
2018-12-01T03:00:19.578Z,5.27
2018-12-01T03:02:47.750Z,5.10
2018-12-01T03:05:15.943Z,5.37
2018-12-01T03:07:44.057Z,4.47
2018-12-01T03:10:15.228Z,4.87
2018-12-01T03:12:43.375Z,4.07
2018-12-01T03:15:13.530Z,4.67
2018-12-01T03:17:41.738Z,4.73
2018-12-01T03:20:12.401Z,4.77
2018-12-01T03:22:40.662Z,4.93
2018-12-01T03:25:09.936Z,4.97
2018-12-01T03:27:38.380Z,4.83
2018-12-01T03:30:10.410Z,4.70
2018-12-01T03:32:38.799Z,4.27
2018-12-01T03:35:12.239Z,4.37
2018-12-01T03:37:41.818Z,5.90
2018-12-01T03:40:10.405Z,4.50
2018-12-01T03:42:38.709Z,4.43
2018-12-01T03:45:08.663Z,4.73
2018-12-01T03:47:36.805Z,4.90
2018-12-01T03:50:06.100Z,4.87
2018-12-01T03:52:34.275Z,4.60
2018-12-01T03:55:02.407Z,4.60
2018-12-01T03:57:30.576Z,5.20
2018-12-01T03:59:59.149Z,4.90
2018-12-01T04:02:27.459Z,4.70
2018-12-01T04:04:55.627Z,5.40
2018-12-01T04:07:23.869Z,4.57
2018-12-01T04:09:52.004Z,5.07
2018-12-01T04:12:20.822Z,4.53
2018-12-01T04:14:49.009Z,4.30
2018-12-01T04:17:17.219Z,5.07
2018-12-01T04:19:45.452Z,4.50
2018-12-01T04:22:13.755Z,4.77
2018-12-01T04:24:42.140Z,4.83
2018-12-01T04:27:10.270Z,4.87
2018-12-01T04:29:38.434Z,5.20
2018-12-01T04:32:06.586Z,4.93
2018-12-01T04:34:34.749Z,5.30
2018-12-01T04:37:02.935Z,4.83
2018-12-01T04:39:31.056Z,5.07
2018-12-01T04:41:59.365Z,4.77
2018-12-01T04:44:27.644Z,4.50
2018-12-01T04:46:55.917Z,5.03
2018-12-01T04:49:24.222Z,4.50
2018-12-01T04:51:52.376Z,5.07
2018-12-01T04:54:20.549Z,5.00
2018-12-01T04:56:48.728Z,5.17
2018-12-01T04:59:16.896Z,5.63
2018-12-01T05:01:45.098Z,5.53
2018-12-01T05:04:13.246Z,5.10
2018-12-01T05:06:41.450Z,4.70
2018-12-01T05:09:09.586Z,4.33
2018-12-01T05:11:37.999Z,5.33
2018-12-01T05:14:07.492Z,5.73
2018-12-01T05:16:37.380Z,4.63
2018-12-01T05:19:06.780Z,5.63
2018-12-01T05:21:37.460Z,5.47
2018-12-01T05:24:05.762Z,4.40
2018-12-01T05:26:37.135Z,5.90
2018-12-01T05:29:07.977Z,5.20
2018-12-01T05:31:39.057Z,5.07
2018-12-01T05:34:08.927Z,5.57
2018-12-01T05:36:37.194Z,4.40
2018-12-01T05:39:09.295Z,4.60
2018-12-01T05:41:37.452Z,4.90
2018-12-01T05:44:05.609Z,4.63
2018-12-01T05:46:33.787Z,5.70
2018-12-01T05:49:01.914Z,5.50
2018-12-01T05:51:30.213Z,4.23
2018-12-01T05:53:58.406Z,4.73
2018-12-01T05:56:26.599Z,4.70
2018-12-01T05:58:56.090Z,4.53
2018-12-01T06:01:24.260Z,6.20
2018-12-01T06:03:52.433Z,4.53
2018-12-01T06:06:23.911Z,4.20
2018-12-01T06:08:52.071Z,3.77
2018-12-01T06:11:20.242Z,4.20
2018-12-01T06:13:48.451Z,4.70
2018-12-01T06:16:16.586Z,4.50
2018-12-01T06:18:44.751Z,4.13
2018-12-01T06:21:13.022Z,4.33
2018-12-01T06:23:41.211Z,3.60
2018-12-01T06:26:09.410Z,3.63
2018-12-01T06:28:37.569Z,4.10
2018-12-01T06:31:05.740Z,3.27
2018-12-01T06:33:33.896Z,3.60
2018-12-01T06:36:02.032Z,3.63
2018-12-01T06:38:30.267Z,3.47
2018-12-01T06:40:58.413Z,4.27
2018-12-01T06:43:26.586Z,2.67
2018-12-01T06:45:54.737Z,2.70
2018-12-01T06:48:23.027Z,2.70
2018-12-01T06:50:51.222Z,2.43
2018-12-01T06:53:19.353Z,2.50
2018-12-01T06:55:47.552Z,2.57
2018-12-01T06:58:15.687Z,2.80
2018-12-01T07:00:44.726Z,2.37
2018-12-01T07:03:12.905Z,3.03
2018-12-01T07:05:41.078Z,3.10
2018-12-01T07:08:09.345Z,3.37
2018-12-01T07:10:37.511Z,3.30
2018-12-01T07:13:06.723Z,3.20
2018-12-01T07:15:38.165Z,3.07
2018-12-01T07:18:17.683Z,3.50
2018-12-01T07:20:45.866Z,3.70
2018-12-01T07:23:14.000Z,4.10
2018-12-01T07:25:42.124Z,3.70
2018-12-01T07:28:10.400Z,4.40
2018-12-01T07:30:38.672Z,4.23
2018-12-01T07:33:06.863Z,4.83
2018-12-01T07:35:35.031Z,3.97
2018-12-01T07:38:03.158Z,4.80
2018-12-01T07:40:31.366Z,4.27
2018-12-01T07:42:59.536Z,3.97
2018-12-01T07:45:27.762Z,4.47
2018-12-01T07:47:55.893Z,4.83
2018-12-01T07:50:24.324Z,4.50
2018-12-01T07:52:53.667Z,4.60
2018-12-01T07:55:21.857Z,4.90
2018-12-01T07:57:50.178Z,4.80
2018-12-01T08:00:18.595Z,4.30
2018-12-01T08:02:47.903Z,5.00
2018-12-01T08:05:16.070Z,4.07
2018-12-01T08:07:44.344Z,3.43
2018-12-01T08:10:14.506Z,3.70
2018-12-01T08:12:42.671Z,3.40
2018-12-01T08:15:12.887Z,3.03
2018-12-01T08:17:41.144Z,2.60
2018-12-01T08:20:12.258Z,2.73
2018-12-01T08:22:40.413Z,2.53
2018-12-01T08:25:14.991Z,1.93
2018-12-01T08:27:43.186Z,2.50
2018-12-01T08:30:15.446Z,2.40
2018-12-01T08:32:43.612Z,2.40
2018-12-01T08:35:11.774Z,2.00
2018-12-01T08:37:40.048Z,2.10
2018-12-01T08:40:11.593Z,2.57
2018-12-01T08:42:39.779Z,2.00
2018-12-01T08:45:10.096Z,2.27
2018-12-01T08:47:38.529Z,2.60
2018-12-01T08:50:09.916Z,2.00
2018-12-01T08:52:38.296Z,2.10
2018-12-01T08:55:08.217Z,2.00
2018-12-01T08:57:36.346Z,1.90
2018-12-01T09:00:08.923Z,2.13
2018-12-01T09:02:37.054Z,1.80
2018-12-01T09:05:05.939Z,1.87
2018-12-01T09:07:34.106Z,2.47
2018-12-01T09:10:02.230Z,1.73
2018-12-01T09:12:30.448Z,1.90
2018-12-01T09:14:58.718Z,2.27
2018-12-01T09:17:26.899Z,1.90
2018-12-01T09:19:55.327Z,2.10
2018-12-01T09:22:23.474Z,1.90
2018-12-01T09:24:51.609Z,1.90
2018-12-01T09:27:22.500Z,1.60
2018-12-01T09:29:48.078Z,1.60
2018-12-01T09:32:16.976Z,2.12
2018-12-01T09:34:45.121Z,1.70
2018-12-01T09:37:13.405Z,2.03
2018-12-01T09:39:41.578Z,1.70
2018-12-01T09:42:09.747Z,2.03
2018-12-01T09:44:37.956Z,1.90
2018-12-01T09:47:06.618Z,2.40
2018-12-01T09:49:34.773Z,1.90
2018-12-01T09:52:03.731Z,1.97
2018-12-01T09:54:31.942Z,1.30
2018-12-01T09:57:00.120Z,1.50
2018-12-01T09:59:28.238Z,1.63
2018-12-01T10:01:56.888Z,1.37
2018-12-01T10:04:25.520Z,1.60
2018-12-01T10:06:53.642Z,1.60
2018-12-01T10:09:21.809Z,1.60
2018-12-01T10:11:50.520Z,1.30
2018-12-01T10:14:18.254Z,1.40
2018-12-01T10:16:46.465Z,1.00
2018-12-01T10:19:15.474Z,1.20
2018-12-01T10:21:44.012Z,1.20
2018-12-01T10:24:12.207Z,1.20
2018-12-01T10:26:40.343Z,1.10
2018-12-01T10:29:08.526Z,1.63
2018-12-01T10:31:36.672Z,1.40
2018-12-01T10:34:05.312Z,1.80
2018-12-01T10:36:34.114Z,1.10
2018-12-01T10:39:03.675Z,1.20
2018-12-01T10:41:30.524Z,1.50
2018-12-01T10:43:58.686Z,1.10
2018-12-01T10:46:27.741Z,0.90
2018-12-01T10:48:55.912Z,1.33
2018-12-01T10:51:24.030Z,1.10
2018-12-01T10:53:52.676Z,1.10
2018-12-01T10:56:20.933Z,1.20
2018-12-01T10:58:49.073Z,1.30
2018-12-01T11:01:22.630Z,1.10
2018-12-01T11:03:50.850Z,1.20
2018-12-01T11:06:20.032Z,0.97
2018-12-01T11:08:48.383Z,1.17
2018-12-01T11:11:16.585Z,1.10
2018-12-01T11:13:45.331Z,1.23
2018-12-01T11:16:13.542Z,1.30
2018-12-01T11:18:41.671Z,1.20
2018-12-01T11:21:09.820Z,0.93
2018-12-01T11:23:38.003Z,1.40
2018-12-01T11:26:06.346Z,1.23
2018-12-01T11:28:35.086Z,1.20
2018-12-01T11:31:03.215Z,1.00
2018-12-01T11:33:31.384Z,0.90
2018-12-01T11:35:59.523Z,1.83
2018-12-01T11:38:27.825Z,0.83
2018-12-01T11:40:55.954Z,1.30
2018-12-01T11:43:24.142Z,1.13
2018-12-01T11:45:52.342Z,1.20
2018-12-01T11:48:20.513Z,1.20
2018-12-01T11:50:48.687Z,1.77
2018-12-01T11:53:16.827Z,1.00
2018-12-01T11:55:45.027Z,1.20
2018-12-01T11:58:13.481Z,1.53
2018-12-01T12:00:47.561Z,1.00
2018-12-01T12:03:16.039Z,1.23
2018-12-01T12:05:44.280Z,1.00
2018-12-01T12:08:19.556Z,1.30
2018-12-01T12:10:47.682Z,1.17
2018-12-01T12:13:15.878Z,1.00
2018-12-01T12:15:44.254Z,0.97
2018-12-01T12:18:12.519Z,1.10
2018-12-01T12:20:40.694Z,1.03
2018-12-01T12:23:09.786Z,1.33
2018-12-01T12:25:37.971Z,1.23
2018-12-01T12:28:06.436Z,1.40
2018-12-01T12:30:34.607Z,1.32
2018-12-01T12:33:02.832Z,1.10
2018-12-01T12:35:30.972Z,1.30
2018-12-01T12:38:00.533Z,1.30
2018-12-01T12:40:28.666Z,1.20
2018-12-01T12:42:58.606Z,0.80
2018-12-01T12:45:26.825Z,1.07
2018-12-01T12:47:54.968Z,1.03
2018-12-01T12:50:23.212Z,1.00
2018-12-01T12:52:52.487Z,0.90
2018-12-01T12:55:23.522Z,1.57
2018-12-01T12:57:51.761Z,1.00
2018-12-01T13:00:23.895Z,0.90
2018-12-01T13:02:54.478Z,1.20
2018-12-01T13:05:29.812Z,1.20
2018-12-01T13:07:57.955Z,0.80
2018-12-01T13:10:26.583Z,1.20
2018-12-01T13:12:54.726Z,1.20
2018-12-01T13:15:22.979Z,1.27
2018-12-01T13:17:51.115Z,1.10
2018-12-01T13:20:20.183Z,1.20
2018-12-01T13:22:52.971Z,1.23
2018-12-01T13:25:21.155Z,0.90
2018-12-01T13:27:57.017Z,1.27
2018-12-01T13:30:28.780Z,1.03
2018-12-01T13:32:56.903Z,1.47
2018-12-01T13:35:25.082Z,1.20
2018-12-01T13:37:59.679Z,0.83
2018-12-01T13:40:27.921Z,1.10
2018-12-01T13:42:56.047Z,1.20
2018-12-01T13:45:24.485Z,1.57
2018-12-01T13:47:52.643Z,1.30
2018-12-01T13:50:21.504Z,1.10
2018-12-01T13:52:55.055Z,1.67
2018-12-01T13:55:23.221Z,0.93
2018-12-01T13:57:51.353Z,1.17
2018-12-01T14:00:25.516Z,0.97
2018-12-01T14:02:53.657Z,1.37
2018-12-01T14:05:21.933Z,1.10
2018-12-01T14:07:51.503Z,1.10
2018-12-01T14:10:23.798Z,1.27
2018-12-01T14:12:56.202Z,1.10
2018-12-01T14:15:24.582Z,1.10
2018-12-01T14:17:52.833Z,1.20
2018-12-01T14:20:24.179Z,1.23
2018-12-01T14:22:52.366Z,1.30
2018-12-01T14:25:21.556Z,1.20
2018-12-01T14:27:58.255Z,1.80
2018-12-01T14:30:26.376Z,1.20
2018-12-01T14:32:54.573Z,1.40
2018-12-01T14:35:30.539Z,1.37
2018-12-01T14:38:01.162Z,1.50
2018-12-01T14:40:29.373Z,1.62
2018-12-01T14:42:57.505Z,1.17
2018-12-01T14:45:25.674Z,1.13
2018-12-01T14:47:54.326Z,1.00
2018-12-01T14:50:22.456Z,1.10
2018-12-01T14:52:50.712Z,1.20
2018-12-01T14:55:18.883Z,1.30
2018-12-01T14:57:47.627Z,1.53
2018-12-01T15:00:23.645Z,1.03
2018-12-01T15:02:52.702Z,1.20
2018-12-01T15:05:20.851Z,1.03
2018-12-01T15:07:50.107Z,1.43
2018-12-01T15:10:19.285Z,1.23
2018-12-01T15:12:47.435Z,1.17
2018-12-01T15:15:17.763Z,1.20
2018-12-01T15:17:44.968Z,1.10
2018-12-01T15:20:17.781Z,1.30
2018-12-01T15:22:47.911Z,1.00
2018-12-01T15:25:22.008Z,1.10
2018-12-01T15:27:50.440Z,1.00
2018-12-01T15:30:20.309Z,0.87
2018-12-01T15:32:51.195Z,1.30
2018-12-01T15:35:19.336Z,0.90
2018-12-01T15:37:47.591Z,1.17
2018-12-01T15:40:17.519Z,1.00
2018-12-01T15:42:45.643Z,1.00
2018-12-01T15:45:16.871Z,1.37
2018-12-01T15:47:45.092Z,0.90
2018-12-01T15:50:17.053Z,0.90
2018-12-01T15:52:48.808Z,0.67
2018-12-01T15:55:16.939Z,0.83
2018-12-01T15:57:45.098Z,0.70
2018-12-01T16:00:15.537Z,1.27
2018-12-01T16:02:43.930Z,0.93
2018-12-01T16:05:12.929Z,1.00
2018-12-01T16:07:41.093Z,1.10
2018-12-01T16:10:11.543Z,1.07
2018-12-01T16:12:39.767Z,1.17
2018-12-01T16:15:20.448Z,1.03
2018-12-01T16:17:48.777Z,0.90
2018-12-01T16:20:17.022Z,0.80
2018-12-01T16:22:45.318Z,0.80
2018-12-01T16:25:14.782Z,1.37
2018-12-01T16:27:44.016Z,0.93
2018-12-01T16:30:16.740Z,0.90
2018-12-01T16:32:45.806Z,0.80
2018-12-01T16:35:14.798Z,1.00
2018-12-01T16:37:43.522Z,1.10
2018-12-01T16:40:17.398Z,1.07
2018-12-01T16:42:45.530Z,1.10
2018-12-01T16:45:14.674Z,0.90
2018-12-01T16:47:42.884Z,1.00
2018-12-01T16:50:14.341Z,1.00
2018-12-01T16:52:44.052Z,1.20
2018-12-01T16:55:14.432Z,0.77
2018-12-01T16:57:42.742Z,0.80
2018-12-01T17:00:14.411Z,1.67
2018-12-01T17:02:42.941Z,1.17
2018-12-01T17:05:12.281Z,1.00
2018-12-01T17:07:40.470Z,1.10
2018-12-01T17:10:13.613Z,0.87
2018-12-01T17:12:42.321Z,1.10
2018-12-01T17:15:12.819Z,1.00
2018-12-01T17:17:40.940Z,1.00
2018-12-01T17:20:13.235Z,1.10
2018-12-01T17:22:42.258Z,1.30
2018-12-01T17:25:11.668Z,0.97
2018-12-01T17:27:39.826Z,0.93
2018-12-01T17:30:13.549Z,1.10
2018-12-01T17:32:41.765Z,1.10
2018-12-01T17:35:11.548Z,0.80
2018-12-01T17:37:39.693Z,1.07
2018-12-01T17:40:10.776Z,1.10
2018-12-01T17:42:38.943Z,1.23
2018-12-01T17:45:09.579Z,1.20
2018-12-01T17:47:37.867Z,1.00
2018-12-01T17:50:13.679Z,1.40
2018-12-01T17:52:46.597Z,1.77
2018-12-01T17:55:15.822Z,1.00
2018-12-01T17:57:44.951Z,1.10
2018-12-01T18:00:18.585Z,1.17
2018-12-01T18:02:46.950Z,1.30
2018-12-01T18:05:16.776Z,1.50
2018-12-01T18:07:45.818Z,1.13
2018-12-01T18:10:14.544Z,1.00
2018-12-01T18:12:43.414Z,1.47
2018-12-01T18:15:13.732Z,1.37
2018-12-01T18:17:42.406Z,1.27
2018-12-01T18:20:16.977Z,0.90
2018-12-01T18:22:46.475Z,1.00
2018-12-01T18:25:14.932Z,1.33
2018-12-01T18:27:43.106Z,0.90
2018-12-01T18:30:15.168Z,1.20
2018-12-01T18:32:43.357Z,1.57
2018-12-01T18:35:11.487Z,1.33
2018-12-01T18:37:39.971Z,1.60
2018-12-01T18:40:12.910Z,1.50
2018-12-01T18:42:41.058Z,1.37
2018-12-01T18:45:12.812Z,1.30
2018-12-01T18:47:40.944Z,1.50
2018-12-01T18:50:13.215Z,1.07
2018-12-01T18:52:41.638Z,1.30
2018-12-01T18:55:13.645Z,1.70
2018-12-01T18:57:41.963Z,1.40
2018-12-01T19:00:17.650Z,1.33
2018-12-01T19:02:46.112Z,1.53
2018-12-01T19:05:14.382Z,1.20
2018-12-01T19:07:42.582Z,1.00
2018-12-01T19:10:15.235Z,1.10
2018-12-01T19:12:43.423Z,1.53
2018-12-01T19:15:12.691Z,1.47
2018-12-01T19:17:40.842Z,1.33
2018-12-01T19:20:12.050Z,1.17
2018-12-01T19:22:40.448Z,1.20
2018-12-01T19:25:13.603Z,1.20
2018-12-01T19:27:41.788Z,1.10
2018-12-01T19:30:12.018Z,0.97
2018-12-01T19:32:42.180Z,1.00
2018-12-01T19:35:11.818Z,1.00
2018-12-01T19:37:39.948Z,1.07
2018-12-01T19:40:14.791Z,1.10
2018-12-01T19:42:42.947Z,1.30
2018-12-01T19:45:11.130Z,0.80
2018-12-01T19:47:39.256Z,1.20
2018-12-01T19:50:10.693Z,1.40
2018-12-01T19:52:39.457Z,1.17
2018-12-01T19:55:10.305Z,1.23
2018-12-01T19:57:38.877Z,1.53
2018-12-01T20:00:11.646Z,0.90
2018-12-01T20:02:39.859Z,2.20
2018-12-01T20:05:09.918Z,1.10
2018-12-01T20:07:38.066Z,1.50
2018-12-01T20:10:11.625Z,1.73
2018-12-01T20:12:39.929Z,1.27
2018-12-01T20:15:15.676Z,1.10
2018-12-01T20:17:43.869Z,1.20
2018-12-01T20:20:12.065Z,1.03
2018-12-01T20:22:40.343Z,0.80
2018-12-01T20:25:10.621Z,1.30
2018-12-01T20:27:38.803Z,1.00
2018-12-01T20:30:17.466Z,1.43
2018-12-01T20:32:45.685Z,1.10
2018-12-01T20:35:18.890Z,0.90
2018-12-01T20:37:50.253Z,0.80
2018-12-01T20:40:18.392Z,0.90
2018-12-01T20:42:46.576Z,1.03
2018-12-01T20:45:14.825Z,0.93
2018-12-01T20:47:43.019Z,0.80
2018-12-01T20:50:13.961Z,0.90
2018-12-01T20:52:42.438Z,0.83
2018-12-01T20:55:16.556Z,1.00
2018-12-01T20:57:46.543Z,0.90
2018-12-01T21:00:14.765Z,0.90
2018-12-01T21:02:43.306Z,1.10
2018-12-01T21:05:14.965Z,1.00
2018-12-01T21:07:43.104Z,1.13
2018-12-01T21:10:15.322Z,0.80
2018-12-01T21:12:43.545Z,1.00
2018-12-01T21:15:12.838Z,0.90
2018-12-01T21:17:42.507Z,0.90
2018-12-01T21:20:13.082Z,1.00
2018-12-01T21:22:42.001Z,0.87
2018-12-01T21:25:19.711Z,1.00
2018-12-01T21:27:47.891Z,0.80
2018-12-01T21:30:18.433Z,0.90
2018-12-01T21:32:47.918Z,0.83
2018-12-01T21:35:16.066Z,0.80
2018-12-01T21:37:44.195Z,0.87
2018-12-01T21:40:17.050Z,0.77
2018-12-01T21:42:45.350Z,0.80
2018-12-01T21:45:14.641Z,0.70
2018-12-01T21:47:42.903Z,0.70
2018-12-01T21:50:16.011Z,0.60
2018-12-01T21:52:46.874Z,0.67
2018-12-01T21:55:15.016Z,0.63
2018-12-01T21:57:44.420Z,0.80
2018-12-01T22:00:19.730Z,0.90
2018-12-01T22:02:49.740Z,0.80
2018-12-01T22:05:19.513Z,1.00
2018-12-01T22:07:47.809Z,0.97
2018-12-01T22:10:16.655Z,1.27
2018-12-01T22:12:44.848Z,0.80
2018-12-01T22:15:15.308Z,1.00
2018-12-01T22:17:43.607Z,0.90
2018-12-01T22:20:13.320Z,0.70
2018-12-01T22:22:41.476Z,1.00
2018-12-01T22:25:10.494Z,0.73
2018-12-01T22:27:38.787Z,0.97
2018-12-01T22:30:11.217Z,1.77
2018-12-01T22:32:39.505Z,0.70
2018-12-01T22:35:24.484Z,0.60
2018-12-01T22:37:53.345Z,0.70
2018-12-01T22:40:25.662Z,0.97
2018-12-01T22:42:55.268Z,0.70
2018-12-01T22:45:23.423Z,0.70
2018-12-01T22:47:51.710Z,1.20
2018-12-01T22:50:20.807Z,0.53
2018-12-01T22:52:49.479Z,0.70
2018-12-01T22:55:21.766Z,0.70
2018-12-01T22:57:54.330Z,0.60
2018-12-01T23:00:43.365Z,0.63
2018-12-01T23:03:12.410Z,0.63
2018-12-01T23:05:40.746Z,0.60
2018-12-01T23:08:12.304Z,0.60
2018-12-01T23:10:40.611Z,0.40
2018-12-01T23:13:08.951Z,0.57
2018-12-01T23:15:37.079Z,0.60
2018-12-01T23:18:07.745Z,0.70
2018-12-01T23:20:35.951Z,0.60
2018-12-01T23:23:04.132Z,0.40
2018-12-01T23:25:32.268Z,0.40
2018-12-01T23:28:00.407Z,0.43
2018-12-01T23:30:29.639Z,0.60
2018-12-01T23:33:02.163Z,0.40
2018-12-01T23:35:30.789Z,0.50
2018-12-01T23:37:59.194Z,0.40
2018-12-01T23:40:28.152Z,0.53
2018-12-01T23:42:55.593Z,0.45
2018-12-01T23:45:24.301Z,0.37
2018-12-01T23:47:52.436Z,0.40
2018-12-01T23:50:23.751Z,0.40
2018-12-01T23:52:54.084Z,0.40
2018-12-01T23:55:22.293Z,0.40
2018-12-01T23:57:50.438Z,0.60
